Arthur Maersk — OXJH2 — position and weather

sailwx.info

Track history (hours):
 
Tides and Currents Weather Stations Pressure Air Temp Water Temp Dewpoint Dewpoint Depression Visibility Wind Speed Wind Dir Waves Ship Positions

Arthur Maersk

Last reported at 2015-Mar-27 21:26 UTC. Time now 2015-Mar-30 19:59 UTC.
Position N 26°27' W 078°50'.

Length 352 m; draft 11 m.

Type: Cargo ship. MMSI: 220221000.

Date/timePositionNaut miles runAvg speedWind from/ knotsBaromVisibWave heightAir tempDewpointWater temp
2015-Mar-27 21:26N 26°27' W 078°50'2 1.8
2015-Mar-27 20:33N 26°27' W 078°52'3 2.5
2015-Mar-27 19:30N 26°26' W 078°55'29 9.9
2015-Mar-27 16:33N 26°20' W 079°27'1413.5
2015-Mar-27 15:33N 26°18' W 079°41'1413.8
2015-Mar-27 14:33N 26°09' W 079°53'1515.3
2015-Mar-27 13:33N 25°55' W 080°00'1111.1
2015-Mar-27 12:33N 25°45' W 080°07'3 2.4
2015-Mar-27 11:26N 25°46' W 080°10'0 0.0
2015-Mar-27 09:07N 25°46' W 080°09'0 0.0
2015-Mar-27 04:22N 25°46' W 080°09'0 0.0
2015-Mar-27 03:31N 25°46' W 080°09'0 0.0
2015-Mar-27 02:25N 25°46' W 080°09'0 0.0
2015-Mar-27 00:28N 25°46' W 080°09'0 0.0
2015-Mar-26 23:13N 25°46' W 080°09'0 0.0
2015-Mar-26 22:31N 25°46' W 080°09'0 0.0
2015-Mar-26 21:31N 25°46' W 080°09'0 0.0
2015-Mar-26 20:31N 25°46' W 080°09'0 0.0
2015-Mar-26 19:22N 25°46' W 080°09'0 0.0
2015-Mar-26 18:22N 25°46' W 080°09'0 0.0
2015-Mar-26 17:22N 25°46' W 080°09'0 0.0
2015-Mar-26 16:25N 25°46' W 080°09'0 0.0
2015-Mar-26 14:13N 25°46' W 080°09'0 0.0
2015-Mar-26 13:28N 25°46' W 080°09'0 0.0
2015-Mar-26 12:21N 25°46' W 080°09'4 4.9
2015-Mar-26 11:33N 25°46' W 080°05'9 9.2
2015-Mar-26 10:33N 25°54' W 080°01'1414.1
2015-Mar-26 09:33N 26°07' W 079°54'1413.6
2015-Mar-26 08:33N 26°20' W 079°49'1413.8
2015-Mar-26 07:33N 26°33' W 079°45'1414.0
2015-Mar-26 06:33N 26°46' W 079°40'1514.2
2015-Mar-26 05:31N 27°01' W 079°35'1414.2
2015-Mar-26 04:33N 27°14' W 079°30'291 5.9
2015-Mar-24 03:29N 31°57' W 080°42'1011.1
2015-Mar-24 02:33N 32°02' W 080°53'8 8.0
2015-Mar-24 01:33N 32°05' W 081°01'5 5.4
2015-Mar-24 00:33N 32°07' W 081°08'2 1.7
2015-Mar-23 23:32N 32°08' W 081°09'0 0.0
2015-Mar-23 22:32N 32°08' W 081°09'0 0.0
2015-Mar-23 21:32N 32°08' W 081°09'0 0.0
2015-Mar-23 20:32N 32°08' W 081°09'0 0.0
2015-Mar-23 19:32N 32°08' W 081°09'0 0.0
2015-Mar-23 18:32N 32°08' W 081°09'0 0.0
2015-Mar-23 17:32N 32°08' W 081°09'0 0.0
2015-Mar-23 16:32N 32°08' W 081°09'0 0.0
2015-Mar-23 15:32N 32°08' W 081°09'0 0.0
2015-Mar-23 14:32N 32°08' W 081°09'0 0.0
2015-Mar-23 13:32N 32°08' W 081°09'0 0.0
2015-Mar-23 12:32N 32°08' W 081°09'0 0.0
2015-Mar-23 11:32N 32°08' W 081°09'0 0.0
2015-Mar-23 10:32N 32°08' W 081°09'0 0.0
2015-Mar-23 09:32N 32°08' W 081°09'0 0.0
2015-Mar-23 08:32N 32°08' W 081°09'0 0.0
2015-Mar-23 07:32N 32°08' W 081°09'0 0.0
2015-Mar-23 06:32N 32°08' W 081°09'0 0.0
2015-Mar-23 05:32N 32°08' W 081°09'0 0.0
2015-Mar-23 04:32N 32°08' W 081°09'0 0.0
2015-Mar-23 03:32N 32°08' W 081°09'0 0.0
2015-Mar-23 02:32N 32°08' W 081°09'0 0.0
2015-Mar-23 01:32N 32°08' W 081°09'0 0.0
2015-Mar-23 00:32N 32°08' W 081°09'0 0.0
2015-Mar-22 23:32N 32°08' W 081°09'0 0.0
2015-Mar-22 22:32N 32°08' W 081°09'0 0.0
2015-Mar-22 21:32N 32°08' W 081°09'0 0.0
2015-Mar-22 20:32N 32°08' W 081°09'0 0.0
2015-Mar-22 19:32N 32°08' W 081°09'0 0.0
2015-Mar-22 18:32N 32°08' W 081°09'0 0.0
2015-Mar-22 17:32N 32°08' W 081°09'0 0.0
2015-Mar-22 16:32N 32°08' W 081°09'0 0.0
2015-Mar-22 15:32N 32°08' W 081°09'3 2.8
2015-Mar-22 14:33N 32°06' W 081°07'6 6.0
2015-Mar-22 13:33N 32°06' W 080°60'1211.8
2015-Mar-22 12:33N 32°00' W 080°47'10 9.8
2015-Mar-22 11:33N 31°56' W 080°37'8 7.6
2015-Mar-22 10:33N 31°56' W 080°28'10 9.9
2015-Mar-22 09:33N 31°58' W 080°17'1312.6
2015-Mar-22 08:33N 32°03' W 080°03'1512.2
2015-Mar-22 07:21N 32°07' W 079°46'1011.6
2015-Mar-22 06:28N 32°10' W 079°35'52012.4
2015-Mar-20 12:34N 39°30' W 073°52'2222.2
2015-Mar-20 11:34N 39°52' W 073°50'2115.7
2015-Mar-20 10:13N 40°13' W 073°49'810.0
2015-Mar-20 09:27N 40°21' W 073°49'9 9.2
2015-Mar-20 08:30N 40°29' W 073°53'1010.3
2015-Mar-20 07:33N 40°36' W 074°02'6 6.1
2015-Mar-20 06:33N 40°39' W 074°09'2 0.9
2015-Mar-20 04:26N 40°41' W 074°09'0 0.0
2015-Mar-20 02:32N 40°41' W 074°09'0 0.0
2015-Mar-20 01:32N 40°41' W 074°09'0 0.0
2015-Mar-19 21:08N 40°41' W 074°09'0 0.0
2015-Mar-19 19:32N 40°41' W 074°09'0 0.0
2015-Mar-19 17:14N 40°41' W 074°09'0 0.0
2015-Mar-19 16:20N 40°41' W 074°09'0 0.0
2015-Mar-19 11:32N 40°41' W 074°09'0 0.0
2015-Mar-19 10:32N 40°41' W 074°09'0 0.0
2015-Mar-19 09:32N 40°41' W 074°09'0 0.0
2015-Mar-19 06:26N 40°41' W 074°09'0 0.0
2015-Mar-19 03:14N 40°41' W 074°09'0 0.0
2015-Mar-18 23:22N 40°41' W 074°09'1 1.5
2015-Mar-18 22:33N 40°40' W 074°09'3 2.5
2015-Mar-18 21:33N 40°39' W 074°05'5 4.2
2015-Mar-18 20:28N 40°35' W 074°02'13 9.9
2015-Mar-18 19:07N 40°27' W 073°48'5311.5
2015-Mar-18 14:33N 40°30' W 072°39'1716.9
2015-Mar-18 13:33N 40°31' W 072°17'1918.7
2015-Mar-18 12:33N 40°31' W 071°52'1918.6
2015-Mar-18 11:33N 40°32' W 071°28'1918.8
2015-Mar-18 10:33N 40°32' W 071°03'  
Track history (hours):
 
Tides and Currents Weather Stations Pressure Air Temp Water Temp Dewpoint Dewpoint Depression Visibility Wind Speed Wind Dir Waves Ship Positions

Arthur Maersk

Last reported at 2015-Mar-27 21:26 UTC. Time now 2015-Mar-30 19:59 UTC.
Position N 26°27' W 078°50'.

Length 352 m; draft 11 m.

Type: Cargo ship. MMSI: 220221000.

Date/timePositionNaut miles runAvg speedWind from/ knotsBaromVisibWave heightAir tempDewpointWater temp
2015-Mar-27 21:26N 26°27' W 078°50'2 1.8
2015-Mar-27 20:33N 26°27' W 078°52'3 2.5
2015-Mar-27 19:30N 26°26' W 078°55'29 9.9
2015-Mar-27 16:33N 26°20' W 079°27'1413.5
2015-Mar-27 15:33N 26°18' W 079°41'1413.8
2015-Mar-27 14:33N 26°09' W 079°53'1515.3
2015-Mar-27 13:33N 25°55' W 080°00'1111.1
2015-Mar-27 12:33N 25°45' W 080°07'3 2.4
2015-Mar-27 11:26N 25°46' W 080°10'0 0.0
2015-Mar-27 09:07N 25°46' W 080°09'0 0.0
2015-Mar-27 04:22N 25°46' W 080°09'0 0.0
2015-Mar-27 03:31N 25°46' W 080°09'0 0.0
2015-Mar-27 02:25N 25°46' W 080°09'0 0.0
2015-Mar-27 00:28N 25°46' W 080°09'0 0.0
2015-Mar-26 23:13N 25°46' W 080°09'0 0.0
2015-Mar-26 22:31N 25°46' W 080°09'0 0.0
2015-Mar-26 21:31N 25°46' W 080°09'0 0.0
2015-Mar-26 20:31N 25°46' W 080°09'0 0.0
2015-Mar-26 19:22N 25°46' W 080°09'0 0.0
2015-Mar-26 18:22N 25°46' W 080°09'0 0.0
2015-Mar-26 17:22N 25°46' W 080°09'0 0.0
2015-Mar-26 16:25N 25°46' W 080°09'0 0.0
2015-Mar-26 14:13N 25°46' W 080°09'0 0.0
2015-Mar-26 13:28N 25°46' W 080°09'0 0.0
2015-Mar-26 12:21N 25°46' W 080°09'4 4.9
2015-Mar-26 11:33N 25°46' W 080°05'9 9.2
2015-Mar-26 10:33N 25°54' W 080°01'1414.1
2015-Mar-26 09:33N 26°07' W 079°54'1413.6
2015-Mar-26 08:33N 26°20' W 079°49'1413.8
2015-Mar-26 07:33N 26°33' W 079°45'1414.0
2015-Mar-26 06:33N 26°46' W 079°40'1514.2
2015-Mar-26 05:31N 27°01' W 079°35'1414.2
2015-Mar-26 04:33N 27°14' W 079°30'291 5.9
2015-Mar-24 03:29N 31°57' W 080°42'1011.1
2015-Mar-24 02:33N 32°02' W 080°53'8 8.0
2015-Mar-24 01:33N 32°05' W 081°01'5 5.4
2015-Mar-24 00:33N 32°07' W 081°08'2 1.7
2015-Mar-23 23:32N 32°08' W 081°09'0 0.0
2015-Mar-23 22:32N 32°08' W 081°09'0 0.0
2015-Mar-23 21:32N 32°08' W 081°09'0 0.0
2015-Mar-23 20:32N 32°08' W 081°09'0 0.0
2015-Mar-23 19:32N 32°08' W 081°09'0 0.0
2015-Mar-23 18:32N 32°08' W 081°09'0 0.0
2015-Mar-23 17:32N 32°08' W 081°09'0 0.0
2015-Mar-23 16:32N 32°08' W 081°09'0 0.0
2015-Mar-23 15:32N 32°08' W 081°09'0 0.0
2015-Mar-23 14:32N 32°08' W 081°09'0 0.0
2015-Mar-23 13:32N 32°08' W 081°09'0 0.0
2015-Mar-23 12:32N 32°08' W 081°09'0 0.0
2015-Mar-23 11:32N 32°08' W 081°09'0 0.0
2015-Mar-23 10:32N 32°08' W 081°09'0 0.0
2015-Mar-23 09:32N 32°08' W 081°09'0 0.0
2015-Mar-23 08:32N 32°08' W 081°09'0 0.0
2015-Mar-23 07:32N 32°08' W 081°09'0 0.0
2015-Mar-23 06:32N 32°08' W 081°09'0 0.0
2015-Mar-23 05:32N 32°08' W 081°09'0 0.0
2015-Mar-23 04:32N 32°08' W 081°09'0 0.0
2015-Mar-23 03:32N 32°08' W 081°09'0 0.0
2015-Mar-23 02:32N 32°08' W 081°09'0 0.0
2015-Mar-23 01:32N 32°08' W 081°09'0 0.0
2015-Mar-23 00:32N 32°08' W 081°09'0 0.0
2015-Mar-22 23:32N 32°08' W 081°09'0 0.0
2015-Mar-22 22:32N 32°08' W 081°09'0 0.0
2015-Mar-22 21:32N 32°08' W 081°09'0 0.0
2015-Mar-22 20:32N 32°08' W 081°09'0 0.0
2015-Mar-22 19:32N 32°08' W 081°09'0 0.0
2015-Mar-22 18:32N 32°08' W 081°09'0 0.0
2015-Mar-22 17:32N 32°08' W 081°09'0 0.0
2015-Mar-22 16:32N 32°08' W 081°09'0 0.0
2015-Mar-22 15:32N 32°08' W 081°09'3 2.8
2015-Mar-22 14:33N 32°06' W 081°07'6 6.0
2015-Mar-22 13:33N 32°06' W 080°60'1211.8
2015-Mar-22 12:33N 32°00' W 080°47'10 9.8
2015-Mar-22 11:33N 31°56' W 080°37'8 7.6
2015-Mar-22 10:33N 31°56' W 080°28'10 9.9
2015-Mar-22 09:33N 31°58' W 080°17'1312.6
2015-Mar-22 08:33N 32°03' W 080°03'1512.2
2015-Mar-22 07:21N 32°07' W 079°46'1011.6
2015-Mar-22 06:28N 32°10' W 079°35'52012.4
2015-Mar-20 12:34N 39°30' W 073°52'2222.2
2015-Mar-20 11:34N 39°52' W 073°50'2115.7
2015-Mar-20 10:13N 40°13' W 073°49'810.0
2015-Mar-20 09:27N 40°21' W 073°49'9 9.2
2015-Mar-20 08:30N 40°29' W 073°53'1010.3
2015-Mar-20 07:33N 40°36' W 074°02'6 6.1
2015-Mar-20 06:33N 40°39' W 074°09'2 0.9
2015-Mar-20 04:26N 40°41' W 074°09'0 0.0
2015-Mar-20 02:32N 40°41' W 074°09'0 0.0
2015-Mar-20 01:32N 40°41' W 074°09'0 0.0
2015-Mar-19 21:08N 40°41' W 074°09'0 0.0
2015-Mar-19 19:32N 40°41' W 074°09'0 0.0
2015-Mar-19 17:14N 40°41' W 074°09'0 0.0
2015-Mar-19 16:20N 40°41' W 074°09'0 0.0
2015-Mar-19 11:32N 40°41' W 074°09'0 0.0
2015-Mar-19 10:32N 40°41' W 074°09'0 0.0
2015-Mar-19 09:32N 40°41' W 074°09'0 0.0
2015-Mar-19 06:26N 40°41' W 074°09'0 0.0
2015-Mar-19 03:14N 40°41' W 074°09'0 0.0
2015-Mar-18 23:22N 40°41' W 074°09'1 1.5
2015-Mar-18 22:33N 40°40' W 074°09'3 2.5
2015-Mar-18 21:33N 40°39' W 074°05'5 4.2
2015-Mar-18 20:28N 40°35' W 074°02'13 9.9
2015-Mar-18 19:07N 40°27' W 073°48'5311.5
2015-Mar-18 14:33N 40°30' W 072°39'1716.9
2015-Mar-18 13:33N 40°31' W 072°17'1918.7
2015-Mar-18 12:33N 40°31' W 071°52'1918.6
2015-Mar-18 11:33N 40°32' W 071°28'1918.8
2015-Mar-18 10:33N 40°32' W 071°03'  

Dump ship's entire track history